Teruhou Maru No.22 — JD3202 — position and weather

sailwx.info

Track history (hours):
 
Tides and Currents Weather Stations Pressure Air Temp Water Temp Dewpoint Dewpoint Depression Visibility Wind Speed Wind Dir Waves Ship Positions

Teruhou Maru No.22

Last reported at 2016-Jun-27 07:31 UTC. Time now 2016-Jun-29 03:48 UTC.
Position N 34°37' E 135°01'.

Length 76 m; draft 5 m.

Type: Cargo ship. MMSI: 431002552.

Date/timePositionNaut miles runAvg speedWind from/ knotsBaromVisibWave heightAir tempDewpointWater temp
2016-Jun-27 07:31N 34°37' E 135°01'1212.0
2016-Jun-27 06:33N 34°36' E 135°15'10 3.2
2016-Jun-27 03:32N 34°34' E 135°27'0 0.0
2016-Jun-27 02:26N 34°34' E 135°27'0 0.0
2016-Jun-26 20:32N 34°34' E 135°27'0 0.0
2016-Jun-26 16:20N 34°34' E 135°27'0 0.0
2016-Jun-26 13:26N 34°34' E 135°27'0 0.0
2016-Jun-26 11:08N 34°34' E 135°27'0 0.0
2016-Jun-25 22:08N 34°34' E 135°27'0 0.0
2016-Jun-25 21:32N 34°34' E 135°27'0 0.0
2016-Jun-25 20:26N 34°34' E 135°27'0 0.0
2016-Jun-25 19:20N 34°34' E 135°27'0 0.0
2016-Jun-25 18:32N 34°34' E 135°27'0 0.0
2016-Jun-25 13:08N 34°34' E 135°27'0 0.0
2016-Jun-25 12:32N 34°34' E 135°27'0 0.0
2016-Jun-25 07:14N 34°34' E 135°27'0 0.0
2016-Jun-25 06:32N 34°34' E 135°27'0 0.0
2016-Jun-25 05:32N 34°34' E 135°27'0 0.0
2016-Jun-25 04:32N 34°34' E 135°27'0 0.0
2016-Jun-25 03:26N 34°34' E 135°27'0 0.0
2016-Jun-25 02:32N 34°34' E 135°27'0 0.0
2016-Jun-25 01:32N 34°34' E 135°27'0 0.0
2016-Jun-25 00:20N 34°34' E 135°27'0 0.0
2016-Jun-24 01:25N 34°34' E 135°27'1 0.3
2016-Jun-23 23:11N 34°35' E 135°27'1 0.9
2016-Jun-23 22:20N 34°35' E 135°26'0 0.0
2016-Jun-23 21:20N 34°35' E 135°26'0 0.0
2016-Jun-23 20:26N 34°35' E 135°26'0 0.0
2016-Jun-23 19:32N 34°35' E 135°26'0 0.0
2016-Jun-23 18:32N 34°35' E 135°26'0 0.0
2016-Jun-23 17:26N 34°35' E 135°26'0 0.0
2016-Jun-23 16:32N 34°35' E 135°26'0 0.0
2016-Jun-23 15:32N 34°35' E 135°26'0 0.0
2016-Jun-23 14:32N 34°35' E 135°26'0 0.0
2016-Jun-23 13:32N 34°35' E 135°26'0 0.0
2016-Jun-23 12:32N 34°35' E 135°26'0 0.0
2016-Jun-23 11:32N 34°35' E 135°26'0 0.0
2016-Jun-23 10:32N 34°35' E 135°26'0 0.0
2016-Jun-23 09:08N 34°35' E 135°26'0 0.0
2016-Jun-23 08:32N 34°35' E 135°26'0 0.0
2016-Jun-23 07:32N 34°35' E 135°26'0 0.0
2016-Jun-23 05:32N 34°35' E 135°26'0 0.0
2016-Jun-23 04:32N 34°35' E 135°26'0 0.0
2016-Jun-23 03:32N 34°35' E 135°26'0 0.0
2016-Jun-23 02:30N 34°35' E 135°26'0 0.0
2016-Jun-23 01:30N 34°35' E 135°26'0 0.0
2016-Jun-23 00:30N 34°35' E 135°26'0 0.0
2016-Jun-22 23:30N 34°35' E 135°26'0 0.0
2016-Jun-22 22:30N 34°35' E 135°26'0 0.0
2016-Jun-22 17:21N 34°35' E 135°25'0 0.0
2016-Jun-22 16:33N 34°35' E 135°25'0 0.0
2016-Jun-22 11:32N 34°35' E 135°25'8 8.4
2016-Jun-22 10:33N 34°32' E 135°16'284 8.0
2016-Jun-20 23:10N 35°50' E 140°50'811.9
2016-Jun-20 22:32N 35°56' E 140°45'4 4.0
2016-Jun-20 21:33N 35°56' E 140°40'0 0.0
2016-Jun-20 20:18N 35°56' E 140°40'0 0.0
2016-Jun-20 19:30N 35°56' E 140°40'0 0.0
2016-Jun-20 18:30N 35°56' E 140°40'0 0.0
2016-Jun-20 17:33N 35°56' E 140°40'0 0.0
2016-Jun-20 16:30N 35°56' E 140°40'0 0.0
2016-Jun-20 15:27N 35°56' E 140°40'0 0.0
2016-Jun-19 22:33N 35°56' E 140°40'0 0.0
2016-Jun-19 21:33N 35°56' E 140°40'0 0.0
2016-Jun-19 20:30N 35°56' E 140°40'0 0.0
2016-Jun-19 19:33N 35°56' E 140°40'0 0.0
2016-Jun-19 18:30N 35°56' E 140°40'0 0.0
2016-Jun-19 17:30N 35°56' E 140°40'0 0.0
2016-Jun-19 16:12N 35°56' E 140°40'0 0.0
2016-Jun-19 15:30N 35°56' E 140°40'0 0.0
2016-Jun-19 14:33N 35°56' E 140°40'0 0.0
2016-Jun-19 13:33N 35°56' E 140°40'0 0.0
2016-Jun-19 03:30N 35°55' E 140°40'0 0.0
2016-Jun-18 21:30N 35°55' E 140°40'0 0.0
2016-Jun-18 20:09N 35°55' E 140°40'0 0.0
2016-Jun-18 19:33N 35°55' E 140°40'0 0.0
2016-Jun-18 13:21N 35°55' E 140°40'0 0.0
2016-Jun-18 12:24N 35°55' E 140°40'0 0.0
2016-Jun-17 21:33N 35°55' E 140°40'5 5.0
2016-Jun-17 20:33N 35°55' E 140°46'1312.8
2016-Jun-17 19:33N 35°44' E 140°55'1412.0
2016-Jun-17 18:25N 35°32' E 140°46'1112.4
2016-Jun-17 17:33N 35°24' E 140°38'1312.3
2016-Jun-17 16:33N 35°14' E 140°29'1312.8
2016-Jun-17 15:31N 35°04' E 140°18'1313.0
2016-Jun-17 14:33N 34°58' E 140°04'1510.8
2016-Jun-17 13:07N 34°56' E 139°46'711.5
2016-Jun-17 12:33N 35°02' E 139°44'1312.8
2016-Jun-17 11:33N 35°15' E 139°47'1111.2
2016-Jun-17 10:33N 35°26' E 139°45'1312.7
2016-Jun-17 09:33N 35°35' E 139°56'6 5.9
2016-Jun-17 08:33N 35°41' E 139°57'0 0.0
2016-Jun-17 07:33N 35°41' E 139°57'  
Track history (hours):
 
Tides and Currents Weather Stations Pressure Air Temp Water Temp Dewpoint Dewpoint Depression Visibility Wind Speed Wind Dir Waves Ship Positions

Teruhou Maru No.22

Last reported at 2016-Jun-27 07:31 UTC. Time now 2016-Jun-29 03:48 UTC.
Position N 34°37' E 135°01'.

Length 76 m; draft 5 m.

Type: Cargo ship. MMSI: 431002552.

Date/timePositionNaut miles runAvg speedWind from/ knotsBaromVisibWave heightAir tempDewpointWater temp
2016-Jun-27 07:31N 34°37' E 135°01'1212.0
2016-Jun-27 06:33N 34°36' E 135°15'10 3.2
2016-Jun-27 03:32N 34°34' E 135°27'0 0.0
2016-Jun-27 02:26N 34°34' E 135°27'0 0.0
2016-Jun-26 20:32N 34°34' E 135°27'0 0.0
2016-Jun-26 16:20N 34°34' E 135°27'0 0.0
2016-Jun-26 13:26N 34°34' E 135°27'0 0.0
2016-Jun-26 11:08N 34°34' E 135°27'0 0.0
2016-Jun-25 22:08N 34°34' E 135°27'0 0.0
2016-Jun-25 21:32N 34°34' E 135°27'0 0.0
2016-Jun-25 20:26N 34°34' E 135°27'0 0.0
2016-Jun-25 19:20N 34°34' E 135°27'0 0.0
2016-Jun-25 18:32N 34°34' E 135°27'0 0.0
2016-Jun-25 13:08N 34°34' E 135°27'0 0.0
2016-Jun-25 12:32N 34°34' E 135°27'0 0.0
2016-Jun-25 07:14N 34°34' E 135°27'0 0.0
2016-Jun-25 06:32N 34°34' E 135°27'0 0.0
2016-Jun-25 05:32N 34°34' E 135°27'0 0.0
2016-Jun-25 04:32N 34°34' E 135°27'0 0.0
2016-Jun-25 03:26N 34°34' E 135°27'0 0.0
2016-Jun-25 02:32N 34°34' E 135°27'0 0.0
2016-Jun-25 01:32N 34°34' E 135°27'0 0.0
2016-Jun-25 00:20N 34°34' E 135°27'0 0.0
2016-Jun-24 01:25N 34°34' E 135°27'1 0.3
2016-Jun-23 23:11N 34°35' E 135°27'1 0.9
2016-Jun-23 22:20N 34°35' E 135°26'0 0.0
2016-Jun-23 21:20N 34°35' E 135°26'0 0.0
2016-Jun-23 20:26N 34°35' E 135°26'0 0.0
2016-Jun-23 19:32N 34°35' E 135°26'0 0.0
2016-Jun-23 18:32N 34°35' E 135°26'0 0.0
2016-Jun-23 17:26N 34°35' E 135°26'0 0.0
2016-Jun-23 16:32N 34°35' E 135°26'0 0.0
2016-Jun-23 15:32N 34°35' E 135°26'0 0.0
2016-Jun-23 14:32N 34°35' E 135°26'0 0.0
2016-Jun-23 13:32N 34°35' E 135°26'0 0.0
2016-Jun-23 12:32N 34°35' E 135°26'0 0.0
2016-Jun-23 11:32N 34°35' E 135°26'0 0.0
2016-Jun-23 10:32N 34°35' E 135°26'0 0.0
2016-Jun-23 09:08N 34°35' E 135°26'0 0.0
2016-Jun-23 08:32N 34°35' E 135°26'0 0.0
2016-Jun-23 07:32N 34°35' E 135°26'0 0.0
2016-Jun-23 05:32N 34°35' E 135°26'0 0.0
2016-Jun-23 04:32N 34°35' E 135°26'0 0.0
2016-Jun-23 03:32N 34°35' E 135°26'0 0.0
2016-Jun-23 02:30N 34°35' E 135°26'0 0.0
2016-Jun-23 01:30N 34°35' E 135°26'0 0.0
2016-Jun-23 00:30N 34°35' E 135°26'0 0.0
2016-Jun-22 23:30N 34°35' E 135°26'0 0.0
2016-Jun-22 22:30N 34°35' E 135°26'0 0.0
2016-Jun-22 17:21N 34°35' E 135°25'0 0.0
2016-Jun-22 16:33N 34°35' E 135°25'0 0.0
2016-Jun-22 11:32N 34°35' E 135°25'8 8.4
2016-Jun-22 10:33N 34°32' E 135°16'284 8.0
2016-Jun-20 23:10N 35°50' E 140°50'811.9
2016-Jun-20 22:32N 35°56' E 140°45'4 4.0
2016-Jun-20 21:33N 35°56' E 140°40'0 0.0
2016-Jun-20 20:18N 35°56' E 140°40'0 0.0
2016-Jun-20 19:30N 35°56' E 140°40'0 0.0
2016-Jun-20 18:30N 35°56' E 140°40'0 0.0
2016-Jun-20 17:33N 35°56' E 140°40'0 0.0
2016-Jun-20 16:30N 35°56' E 140°40'0 0.0
2016-Jun-20 15:27N 35°56' E 140°40'0 0.0
2016-Jun-19 22:33N 35°56' E 140°40'0 0.0
2016-Jun-19 21:33N 35°56' E 140°40'0 0.0
2016-Jun-19 20:30N 35°56' E 140°40'0 0.0
2016-Jun-19 19:33N 35°56' E 140°40'0 0.0
2016-Jun-19 18:30N 35°56' E 140°40'0 0.0
2016-Jun-19 17:30N 35°56' E 140°40'0 0.0
2016-Jun-19 16:12N 35°56' E 140°40'0 0.0
2016-Jun-19 15:30N 35°56' E 140°40'0 0.0
2016-Jun-19 14:33N 35°56' E 140°40'0 0.0
2016-Jun-19 13:33N 35°56' E 140°40'0 0.0
2016-Jun-19 03:30N 35°55' E 140°40'0 0.0
2016-Jun-18 21:30N 35°55' E 140°40'0 0.0
2016-Jun-18 20:09N 35°55' E 140°40'0 0.0
2016-Jun-18 19:33N 35°55' E 140°40'0 0.0
2016-Jun-18 13:21N 35°55' E 140°40'0 0.0
2016-Jun-18 12:24N 35°55' E 140°40'0 0.0
2016-Jun-17 21:33N 35°55' E 140°40'5 5.0
2016-Jun-17 20:33N 35°55' E 140°46'1312.8
2016-Jun-17 19:33N 35°44' E 140°55'1412.0
2016-Jun-17 18:25N 35°32' E 140°46'1112.4
2016-Jun-17 17:33N 35°24' E 140°38'1312.3
2016-Jun-17 16:33N 35°14' E 140°29'1312.8
2016-Jun-17 15:31N 35°04' E 140°18'1313.0
2016-Jun-17 14:33N 34°58' E 140°04'1510.8
2016-Jun-17 13:07N 34°56' E 139°46'711.5
2016-Jun-17 12:33N 35°02' E 139°44'1312.8
2016-Jun-17 11:33N 35°15' E 139°47'1111.2
2016-Jun-17 10:33N 35°26' E 139°45'1312.7
2016-Jun-17 09:33N 35°35' E 139°56'6 5.9
2016-Jun-17 08:33N 35°41' E 139°57'0 0.0
2016-Jun-17 07:33N 35°41' E 139°57'  

Dump ship's entire track history